Terminal Aerodrome Forecast
Issued by NWS Northern Indiana

Home | Current Version | Previous Version | Text Only | Print | Product List | Glossary Off
Versions: 1 2 3 4 5 6 7 8 9 10 11 12 13 14

000
FTUS43 KIWX 110520
TAFFWA
TAF
KFWA 110520Z 1106/1206 16008KT 1SM -SN OVC015
      TEMPO 1106/1110 2SM -SN
     FM111700 16012KT 1SM -SN OVC015
     FM112300 19011KT 1SM -SN OVC008
     FM120300 21012KT 2SM -SN OVC008=

USA.gov is the U.S. government's official web portal to all federal, state and local government web resources and services.